Cotui, Dominican Republic
Current Conditions -  °F | °C
As of 4:25 PM on Thursday 29 Jan 2015 (Local Time) from MDST Reporting Station
Moderate Rain Moderate Rain  
Wind Chill: 72°   Ceiling: Unl
Heat Index: 72°   Visibility: 4mi
Dew Point: 66°   Wind: 13mph
Humidity: 83%   Direction: 80°E
Pressure: 30"   Gusts: NA
Location:  19.06°N, 70.15°W
Report Text: MDST 292025Z 08011KT 7000 RA BNK017 SCT070 22/19 Q1016
Loading
Personal Weather Stations






























Interactive Weather Map New forecast layout! Learn more

10-Day Weather Forecast

Advertisements
Track Severe Weather on mobile